createdAt,value
2022-10-09T00:01:05.161Z,3.93
2022-10-09T00:04:08.024Z,3.60
2022-10-09T00:07:10.805Z,3.60
2022-10-09T00:10:14.896Z,3.63
2022-10-09T00:13:17.741Z,3.67
2022-10-09T00:16:21.882Z,3.77
2022-10-09T00:19:24.728Z,3.80
2022-10-09T00:22:27.532Z,4.00
2022-10-09T00:25:31.619Z,3.87
2022-10-09T00:28:38.323Z,3.70
2022-10-09T00:31:41.527Z,4.33
2022-10-09T00:34:44.804Z,3.50
2022-10-09T00:37:49.206Z,4.00
2022-10-09T00:40:53.354Z,3.80
2022-10-09T00:43:58.595Z,3.47
2022-10-09T00:47:01.376Z,3.53
2022-10-09T00:50:07.647Z,4.20
2022-10-09T00:53:14.447Z,3.63
2022-10-09T00:56:18.874Z,3.87
2022-10-09T00:59:22.415Z,3.57
2022-10-09T01:02:25.190Z,4.00
2022-10-09T01:05:40.735Z,3.63
2022-10-09T01:08:52.434Z,4.07
2022-10-09T01:12:01.889Z,4.53
2022-10-09T01:15:12.927Z,3.47
2022-10-09T01:18:23.947Z,4.33
2022-10-09T01:21:30.904Z,4.23
2022-10-09T01:24:39.058Z,4.10
2022-10-09T01:27:43.405Z,3.63
2022-10-09T01:30:47.606Z,3.60
2022-10-09T01:33:51.230Z,3.60
2022-10-09T01:36:55.453Z,3.60
2022-10-09T01:39:59.276Z,3.67
2022-10-09T01:43:03.717Z,3.57
2022-10-09T01:46:21.159Z,3.83
2022-10-09T01:49:39.189Z,4.20
2022-10-09T01:52:48.265Z,3.57
2022-10-09T01:55:59.680Z,3.43
2022-10-09T01:59:11.261Z,3.37
2022-10-09T02:02:18.250Z,3.70
2022-10-09T02:05:28.456Z,3.73
2022-10-09T02:08:33.311Z,3.90
2022-10-09T02:11:38.823Z,4.10
2022-10-09T02:14:43.045Z,3.57
2022-10-09T02:17:49.215Z,3.70
2022-10-09T02:20:56.511Z,3.87
2022-10-09T02:24:00.420Z,3.47
2022-10-09T02:27:04.059Z,3.90
2022-10-09T02:30:10.292Z,3.80
2022-10-09T02:33:13.074Z,3.70
2022-10-09T02:36:15.843Z,3.50
2022-10-09T02:39:18.914Z,3.97
2022-10-09T02:42:22.101Z,3.67
2022-10-09T02:45:26.340Z,3.60
2022-10-09T02:48:29.276Z,4.10
2022-10-09T02:51:32.039Z,3.67
2022-10-09T02:54:34.935Z,3.70
2022-10-09T02:57:37.711Z,3.60
2022-10-09T03:00:41.846Z,3.43
2022-10-09T03:03:45.465Z,4.53
2022-10-09T03:06:48.203Z,4.23
2022-10-09T03:09:50.915Z,4.37
2022-10-09T03:12:53.708Z,4.20
2022-10-09T03:16:03.961Z,4.07
2022-10-09T03:19:06.793Z,4.33
2022-10-09T03:22:09.702Z,3.67
2022-10-09T03:25:12.684Z,3.50
2022-10-09T03:28:18.512Z,3.70
2022-10-09T03:34:48.720Z,3.90
2022-10-09T03:37:51.502Z,4.30
2022-10-09T03:40:54.606Z,3.67
2022-10-09T03:43:57.356Z,4.03
2022-10-09T03:47:01.543Z,4.30
2022-10-09T03:50:04.576Z,3.70
2022-10-09T03:53:08.195Z,4.07
2022-10-09T03:56:10.982Z,5.23
2022-10-09T03:59:13.909Z,3.77
2022-10-09T04:02:18.067Z,3.90
2022-10-09T04:05:20.931Z,3.70
2022-10-09T04:08:23.695Z,3.40
2022-10-09T04:11:26.421Z,3.30
2022-10-09T04:14:29.175Z,4.13
2022-10-09T04:17:33.320Z,3.47
2022-10-09T04:20:36.130Z,3.40
2022-10-09T04:23:38.877Z,3.77
2022-10-09T04:26:41.751Z,3.53
2022-10-09T04:29:44.547Z,4.20
2022-10-09T04:32:49.264Z,3.83
2022-10-09T04:35:54.270Z,3.87
2022-10-09T04:38:57.134Z,3.70
2022-10-09T04:41:59.938Z,3.97
2022-10-09T04:45:02.774Z,3.77
2022-10-09T04:48:07.038Z,3.87
2022-10-09T04:51:10.661Z,4.10
2022-10-09T04:54:13.674Z,3.70
2022-10-09T04:57:16.474Z,3.90
2022-10-09T05:00:19.397Z,4.27
2022-10-09T05:03:23.671Z,3.80
2022-10-09T05:06:26.791Z,4.30
2022-10-09T05:09:29.576Z,6.80
2022-10-09T05:12:32.361Z,6.20
2022-10-09T05:15:37.635Z,5.83
2022-10-09T05:18:44.490Z,4.97
2022-10-09T05:21:47.271Z,6.03
2022-10-09T05:24:49.982Z,4.50
2022-10-09T05:27:53.204Z,4.63
2022-10-09T05:30:55.992Z,4.20
2022-10-09T05:34:01.583Z,4.93
2022-10-09T05:37:04.468Z,5.37
2022-10-09T05:40:08.611Z,5.07
2022-10-09T05:43:11.405Z,4.57
2022-10-09T05:46:15.865Z,4.50
2022-10-09T05:49:20.085Z,4.67
2022-10-09T05:52:22.986Z,6.30
2022-10-09T05:55:26.782Z,6.23
2022-10-09T05:58:29.522Z,5.40
2022-10-09T06:01:34.281Z,5.13
2022-10-09T06:04:38.422Z,6.00
2022-10-09T06:07:41.255Z,5.63
2022-10-09T06:10:44.041Z,4.80
2022-10-09T06:13:48.094Z,5.00
2022-10-09T06:16:51.224Z,5.47
2022-10-09T06:19:55.400Z,6.10
2022-10-09T06:22:58.419Z,4.83
2022-10-09T06:26:05.092Z,5.57
2022-10-09T06:29:07.853Z,5.20
2022-10-09T06:32:10.666Z,5.50
2022-10-09T06:35:14.838Z,5.57
2022-10-09T06:38:18.085Z,4.67
2022-10-09T06:41:22.109Z,5.23
2022-10-09T06:44:24.830Z,4.87
2022-10-09T06:47:27.565Z,5.43
2022-10-09T06:50:31.657Z,5.53
2022-10-09T06:53:35.723Z,5.03
2022-10-09T06:56:38.567Z,5.07
2022-10-09T06:59:41.343Z,5.80
2022-10-09T07:02:44.398Z,5.80
2022-10-09T07:05:48.560Z,5.40
2022-10-09T07:08:53.581Z,5.27
2022-10-09T07:11:56.361Z,5.63
2022-10-09T07:14:59.113Z,5.40
2022-10-09T07:18:03.619Z,5.57
2022-10-09T07:21:09.264Z,5.57
2022-10-09T07:24:13.157Z,5.27
2022-10-09T07:27:15.908Z,5.13
2022-10-09T07:30:18.791Z,4.97
2022-10-09T07:33:21.729Z,4.50
2022-10-09T07:36:25.948Z,4.50
2022-10-09T07:39:28.702Z,4.20
2022-10-09T07:42:31.433Z,5.13
2022-10-09T07:45:35.828Z,4.57
2022-10-09T07:48:38.721Z,5.27
2022-10-09T07:51:42.823Z,5.00
2022-10-09T07:54:45.570Z,4.63
2022-10-09T07:57:48.317Z,4.60
2022-10-09T08:00:51.012Z,5.23
2022-10-09T08:03:53.768Z,4.70
2022-10-09T08:06:58.409Z,4.63
2022-10-09T08:10:01.371Z,4.93
2022-10-09T08:13:04.972Z,4.93
2022-10-09T08:16:08.632Z,5.20
2022-10-09T08:19:11.486Z,5.10
2022-10-09T08:22:15.829Z,4.73
2022-10-09T08:25:18.704Z,5.23
2022-10-09T08:28:21.755Z,5.33
2022-10-09T08:31:25.085Z,5.07
2022-10-09T08:34:28.073Z,5.37
2022-10-09T08:37:32.229Z,5.23
2022-10-09T08:40:43.115Z,5.77
2022-10-09T08:43:50.953Z,5.17
2022-10-09T08:47:00.382Z,4.77
2022-10-09T08:50:12.960Z,4.60
2022-10-09T08:53:29.677Z,5.83
2022-10-09T08:56:34.411Z,5.70
2022-10-09T08:59:37.283Z,5.10
2022-10-09T09:03:03.909Z,5.73
2022-10-09T09:06:10.742Z,4.90
2022-10-09T09:09:20.391Z,5.07
2022-10-09T09:12:34.065Z,5.57
2022-10-09T09:15:47.826Z,5.30
2022-10-09T09:19:03.769Z,5.00
2022-10-09T09:22:11.956Z,4.60
2022-10-09T09:25:24.416Z,4.30
2022-10-09T09:28:30.233Z,4.83
2022-10-09T09:31:37.219Z,4.17
2022-10-09T09:34:42.361Z,3.87
2022-10-09T09:37:45.269Z,3.47
2022-10-09T09:40:50.729Z,4.50
2022-10-09T09:43:53.630Z,3.47
2022-10-09T09:46:56.792Z,4.27
2022-10-09T09:50:01.712Z,3.70
2022-10-09T09:53:08.332Z,3.53
2022-10-09T09:56:12.886Z,4.07
2022-10-09T09:59:32.229Z,3.83
2022-10-09T10:02:35.003Z,3.80
2022-10-09T10:05:38.905Z,4.40
2022-10-09T10:08:41.658Z,3.47
2022-10-09T10:11:48.408Z,3.80
2022-10-09T10:14:51.845Z,4.07
2022-10-09T10:18:00.915Z,3.90
2022-10-09T10:21:07.847Z,3.70
2022-10-09T10:24:16.212Z,3.57
2022-10-09T10:27:26.158Z,3.60
2022-10-09T10:30:29.500Z,3.20
2022-10-09T10:33:34.947Z,3.10
2022-10-09T10:36:37.701Z,2.83
2022-10-09T10:39:46.323Z,3.67
2022-10-09T10:43:07.279Z,2.97
2022-10-09T10:46:18.211Z,3.00
2022-10-09T10:49:23.542Z,3.10
2022-10-09T10:52:38.864Z,3.30
2022-10-09T10:55:53.804Z,3.00
2022-10-09T10:59:11.193Z,2.80
2022-10-09T11:02:41.251Z,2.60
2022-10-09T11:05:51.533Z,2.60
2022-10-09T11:09:06.569Z,2.73
2022-10-09T11:12:24.746Z,2.47
2022-10-09T11:15:47.946Z,2.30
2022-10-09T11:19:11.019Z,2.73
2022-10-09T11:22:28.755Z,2.33
2022-10-09T11:25:37.414Z,3.07
2022-10-09T11:28:47.342Z,2.70
2022-10-09T11:31:56.523Z,2.53
2022-10-09T11:35:03.353Z,2.47
2022-10-09T11:38:13.196Z,2.63
2022-10-09T11:41:17.027Z,2.90
2022-10-09T11:44:40.312Z,2.57
2022-10-09T11:47:52.892Z,2.47
2022-10-09T11:51:02.415Z,2.27
2022-10-09T11:54:11.477Z,2.77
2022-10-09T11:57:15.466Z,2.40
2022-10-09T12:00:30.546Z,2.97
2022-10-09T12:03:37.036Z,2.83
2022-10-09T12:06:48.258Z,2.80
2022-10-09T12:09:57.133Z,2.60
2022-10-09T12:13:03.014Z,2.67
2022-10-09T12:16:07.359Z,2.57
2022-10-09T12:19:17.870Z,2.57
2022-10-09T12:22:24.127Z,3.10
2022-10-09T12:25:30.426Z,2.57
2022-10-09T12:28:38.877Z,2.50
2022-10-09T12:31:43.328Z,3.17
2022-10-09T12:34:50.371Z,2.60
2022-10-09T12:37:53.467Z,2.63
2022-10-09T12:40:59.055Z,2.50
2022-10-09T12:44:02.758Z,2.73
2022-10-09T12:47:08.345Z,2.27
2022-10-09T12:50:24.034Z,3.00
2022-10-09T12:53:28.288Z,3.13
2022-10-09T12:56:34.025Z,2.77
2022-10-09T12:59:36.938Z,2.43
2022-10-09T13:02:41.470Z,2.37
2022-10-09T13:05:45.910Z,2.47
2022-10-09T13:08:53.723Z,3.03
2022-10-09T13:11:59.397Z,2.67
2022-10-09T13:15:04.551Z,2.60
2022-10-09T13:18:20.772Z,2.50
2022-10-09T13:21:29.081Z,2.97
2022-10-09T13:24:35.704Z,2.80
2022-10-09T13:27:40.730Z,3.40
2022-10-09T13:30:43.584Z,2.80
2022-10-09T13:33:46.816Z,2.07
2022-10-09T13:36:51.426Z,2.60
2022-10-09T13:39:54.937Z,2.63
2022-10-09T13:43:02.285Z,2.40
2022-10-09T13:46:05.109Z,2.70
2022-10-09T13:49:07.933Z,2.87
2022-10-09T13:52:12.078Z,2.77
2022-10-09T13:55:15.512Z,2.70
2022-10-09T13:58:18.307Z,3.43
2022-10-09T14:01:21.653Z,3.00
2022-10-09T14:04:24.469Z,3.47
2022-10-09T14:07:28.602Z,2.70
2022-10-09T14:10:31.411Z,3.27
2022-10-09T14:13:34.627Z,2.73
2022-10-09T14:16:37.464Z,3.47
2022-10-09T14:19:40.175Z,3.60
2022-10-09T14:22:44.285Z,3.50
2022-10-09T14:25:47.050Z,4.83
2022-10-09T14:28:49.984Z,3.93
2022-10-09T14:31:53.007Z,3.93
2022-10-09T14:34:55.921Z,3.50
2022-10-09T14:38:00.106Z,2.83
2022-10-09T14:41:02.928Z,2.93
2022-10-09T14:44:06.104Z,2.57
2022-10-09T14:47:08.913Z,2.97
2022-10-09T14:50:11.979Z,2.80
2022-10-09T14:53:16.431Z,2.70
2022-10-09T14:56:21.539Z,2.67
2022-10-09T14:59:25.005Z,2.83
2022-10-09T15:02:27.854Z,2.50
2022-10-09T15:05:30.767Z,3.13
2022-10-09T15:08:36.534Z,3.07
2022-10-09T15:11:39.495Z,2.47
2022-10-09T15:14:42.453Z,3.10
2022-10-09T15:17:45.226Z,4.90
2022-10-09T15:20:48.379Z,4.47
2022-10-09T15:23:54.811Z,5.03
2022-10-09T15:26:57.726Z,5.17
2022-10-09T15:30:00.585Z,5.13
2022-10-09T15:33:04.018Z,4.90
2022-10-09T15:36:06.938Z,5.30
2022-10-09T15:39:11.791Z,5.93
2022-10-09T15:42:14.616Z,4.53
2022-10-09T15:45:17.671Z,5.03
2022-10-09T15:48:22.394Z,4.00
2022-10-09T15:51:25.687Z,4.07
2022-10-09T15:54:30.311Z,4.30
2022-10-09T15:57:33.072Z,4.23
2022-10-09T16:00:37.443Z,3.70
2022-10-09T16:03:40.473Z,3.60
2022-10-09T16:06:43.276Z,3.83
2022-10-09T16:09:47.401Z,3.53
2022-10-09T16:12:50.508Z,3.00
2022-10-09T16:15:54.026Z,3.70
2022-10-09T16:18:57.620Z,3.30
2022-10-09T16:22:00.416Z,2.73
2022-10-09T16:25:04.936Z,3.80
2022-10-09T16:28:09.328Z,3.40
2022-10-09T16:31:19.678Z,4.07
2022-10-09T16:34:22.635Z,3.40
2022-10-09T16:37:25.409Z,3.43
2022-10-09T16:40:49.773Z,3.60
2022-10-09T16:43:55.235Z,3.57
2022-10-09T16:46:58.377Z,4.37
2022-10-09T16:50:01.281Z,3.83
2022-10-09T16:53:04.017Z,4.07
2022-10-09T16:56:14.183Z,3.50
2022-10-09T16:59:16.945Z,3.10
2022-10-09T17:02:19.710Z,4.37
2022-10-09T17:05:24.240Z,3.47
2022-10-09T17:08:27.512Z,3.90
2022-10-09T17:11:32.359Z,3.90
2022-10-09T17:14:36.421Z,4.33
2022-10-09T17:17:39.459Z,4.10
2022-10-09T17:20:42.249Z,4.27
2022-10-09T17:23:45.583Z,4.03
2022-10-09T17:26:49.747Z,4.07
2022-10-09T17:29:52.574Z,5.17
2022-10-09T17:32:55.362Z,5.20
2022-10-09T17:35:58.242Z,4.17
2022-10-09T17:39:01.721Z,4.53
2022-10-09T17:42:05.934Z,4.20
2022-10-09T17:45:10.207Z,3.93
2022-10-09T17:48:13.151Z,4.50
2022-10-09T17:51:17.662Z,4.67
2022-10-09T17:54:20.429Z,4.40
2022-10-09T17:57:25.317Z,4.40
2022-10-09T18:00:28.063Z,4.10
2022-10-09T18:03:30.809Z,5.10
2022-10-09T18:06:35.185Z,4.90
2022-10-09T18:09:38.407Z,4.50
2022-10-09T18:12:42.506Z,4.53
2022-10-09T18:15:45.316Z,4.97
2022-10-09T18:18:48.100Z,4.50
2022-10-09T18:21:51.101Z,5.27
2022-10-09T18:24:53.882Z,6.07
2022-10-09T18:27:58.112Z,5.53
2022-10-09T18:31:01.013Z,5.57
2022-10-09T18:34:03.937Z,6.03
2022-10-09T18:37:06.750Z,5.77
2022-10-09T18:40:10.123Z,5.47
2022-10-09T18:43:14.344Z,5.77
2022-10-09T18:46:18.655Z,5.03
2022-10-09T18:49:25.304Z,5.17
2022-10-09T18:52:28.341Z,5.40
2022-10-09T18:55:31.127Z,5.13
2022-10-09T18:58:36.529Z,4.80
2022-10-09T19:01:39.451Z,5.00
2022-10-09T19:04:42.254Z,6.13
2022-10-09T19:07:45.020Z,5.07
2022-10-09T19:10:51.276Z,5.50
2022-10-09T19:13:55.935Z,5.60
2022-10-09T19:16:58.744Z,5.93
2022-10-09T19:20:01.531Z,5.30
2022-10-09T19:23:04.275Z,5.63
2022-10-09T19:26:07.117Z,5.43
2022-10-09T19:29:11.255Z,6.30
2022-10-09T19:32:13.953Z,6.17
2022-10-09T19:35:16.868Z,5.63
2022-10-09T19:38:20.691Z,6.40
2022-10-09T19:41:23.518Z,5.60
2022-10-09T19:44:27.704Z,6.33
2022-10-09T19:47:30.431Z,6.37
2022-10-09T19:50:33.216Z,6.47
2022-10-09T19:53:36.489Z,5.73
2022-10-09T19:56:40.649Z,6.27
2022-10-09T19:59:44.927Z,6.37
2022-10-09T20:02:47.989Z,6.07
2022-10-09T20:05:51.045Z,6.47
2022-10-09T20:08:54.171Z,6.40
2022-10-09T20:11:56.936Z,6.27
2022-10-09T20:15:01.045Z,5.90
2022-10-09T20:18:03.815Z,6.03
2022-10-09T20:21:06.995Z,5.90
2022-10-09T20:24:09.978Z,6.33
2022-10-09T20:27:12.719Z,6.10
2022-10-09T20:30:17.007Z,6.37
2022-10-09T20:33:19.773Z,5.50
2022-10-09T20:36:25.273Z,6.93
2022-10-09T20:39:28.036Z,6.60
2022-10-09T20:42:31.909Z,6.27
2022-10-09T20:45:40.136Z,5.67
2022-10-09T20:48:43.579Z,5.57
2022-10-09T20:51:46.304Z,5.80
2022-10-09T20:54:49.105Z,5.37
2022-10-09T20:57:54.928Z,5.30
2022-10-09T21:00:59.665Z,5.97
2022-10-09T21:04:03.093Z,5.40
2022-10-09T21:07:05.865Z,5.40
2022-10-09T21:10:09.591Z,5.33
2022-10-09T21:13:12.518Z,5.47
2022-10-09T21:16:19.349Z,4.87
2022-10-09T21:19:22.192Z,5.03
2022-10-09T21:22:25.087Z,4.80
2022-10-09T21:25:27.990Z,4.80
2022-10-09T21:28:31.134Z,4.33
2022-10-09T21:31:35.507Z,4.73
2022-10-09T21:34:38.269Z,4.40
2022-10-09T21:37:41.079Z,4.13
2022-10-09T21:40:44.403Z,4.60
2022-10-09T21:43:47.238Z,5.27
2022-10-09T21:46:51.324Z,4.60
2022-10-09T21:49:54.333Z,4.87
2022-10-09T21:52:57.203Z,4.87
2022-10-09T21:56:00.053Z,5.00
2022-10-09T21:59:02.852Z,4.90
2022-10-09T22:02:06.918Z,4.60
2022-10-09T22:05:10.826Z,5.13
2022-10-09T22:08:13.602Z,5.07
2022-10-09T22:11:17.175Z,4.80
2022-10-09T22:14:20.011Z,4.73
2022-10-09T22:17:24.532Z,4.90
2022-10-09T22:20:27.843Z,4.93
2022-10-09T22:23:30.630Z,5.03
2022-10-09T22:26:33.380Z,4.60
2022-10-09T22:29:38.177Z,4.70
2022-10-09T22:32:42.263Z,4.70
2022-10-09T22:35:45.740Z,4.73
2022-10-09T22:38:48.707Z,5.17
2022-10-09T22:41:51.632Z,5.10
2022-10-09T22:44:54.419Z,4.93
2022-10-09T22:47:59.345Z,4.37
2022-10-09T22:51:03.468Z,4.47
2022-10-09T22:54:06.764Z,4.63
2022-10-09T22:57:09.464Z,4.80
2022-10-09T23:00:13.885Z,4.57
2022-10-09T23:03:18.051Z,4.80
2022-10-09T23:06:21.300Z,4.97
2022-10-09T23:09:26.478Z,4.67
2022-10-09T23:12:29.266Z,4.63
2022-10-09T23:15:32.045Z,4.63
2022-10-09T23:18:37.134Z,4.60
2022-10-09T23:21:42.021Z,4.80
2022-10-09T23:24:44.891Z,4.60
2022-10-09T23:27:47.711Z,4.63
2022-10-09T23:30:50.478Z,4.73
2022-10-09T23:33:55.343Z,4.30
2022-10-09T23:36:58.166Z,5.03
2022-10-09T23:40:00.925Z,4.80
2022-10-09T23:43:03.645Z,4.50
2022-10-09T23:46:08.862Z,4.93
2022-10-09T23:49:12.959Z,4.90
2022-10-09T23:52:15.853Z,4.97
2022-10-09T23:55:18.567Z,4.87
2022-10-09T23:58:21.880Z,4.97
